sensor_id;sensor_type;location;lat;lon;timestamp;P1;durP1;ratioP1;P2;durP2;ratioP2
4508;SDS011;2267;48.816;9.230;2023-04-03T00:00:11;3.13;;;2.83;;
4508;SDS011;2267;48.816;9.230;2023-04-03T00:02:41;3.60;;;3.23;;
4508;SDS011;2267;48.816;9.230;2023-04-03T00:05:08;3.93;;;3.53;;
4508;SDS011;2267;48.816;9.230;2023-04-03T00:07:44;4.53;;;3.10;;
4508;SDS011;2267;48.816;9.230;2023-04-03T00:10:21;4.63;;;3.40;;
4508;SDS011;2267;48.816;9.230;2023-04-03T00:12:50;3.77;;;3.47;;
4508;SDS011;2267;48.816;9.230;2023-04-03T00:15:23;3.80;;;3.50;;
4508;SDS011;2267;48.816;9.230;2023-04-03T00:17:49;4.13;;;3.70;;
4508;SDS011;2267;48.816;9.230;2023-04-03T00:20:16;3.50;;;3.20;;
4508;SDS011;2267;48.816;9.230;2023-04-03T00:22:43;4.20;;;3.13;;
4508;SDS011;2267;48.816;9.230;2023-04-03T00:25:10;3.43;;;3.07;;
4508;SDS011;2267;48.816;9.230;2023-04-03T00:27:40;4.13;;;3.70;;
4508;SDS011;2267;48.816;9.230;2023-04-03T00:30:14;3.50;;;3.20;;
4508;SDS011;2267;48.816;9.230;2023-04-03T00:32:43;3.90;;;3.27;;
4508;SDS011;2267;48.816;9.230;2023-04-03T00:35:10;3.77;;;3.47;;
4508;SDS011;2267;48.816;9.230;2023-04-03T00:37:37;4.27;;;3.67;;
4508;SDS011;2267;48.816;9.230;2023-04-03T00:40:04;3.50;;;3.10;;
4508;SDS011;2267;48.816;9.230;2023-04-03T00:42:35;4.10;;;3.57;;
4508;SDS011;2267;48.816;9.230;2023-04-03T00:47:30;5.33;;;3.80;;
4508;SDS011;2267;48.816;9.230;2023-04-03T00:49:59;5.60;;;3.37;;
4508;SDS011;2267;48.816;9.230;2023-04-03T00:52:28;4.30;;;4.00;;
4508;SDS011;2267;48.816;9.230;2023-04-03T00:55:06;3.83;;;3.53;;
4508;SDS011;2267;48.816;9.230;2023-04-03T00:57:37;4.10;;;3.37;;
4508;SDS011;2267;48.816;9.230;2023-04-03T01:00:05;4.60;;;4.23;;
4508;SDS011;2267;48.816;9.230;2023-04-03T01:02:37;3.50;;;3.20;;
4508;SDS011;2267;48.816;9.230;2023-04-03T01:05:07;3.60;;;3.30;;
4508;SDS011;2267;48.816;9.230;2023-04-03T01:07:34;3.80;;;3.50;;
4508;SDS011;2267;48.816;9.230;2023-04-03T01:10:04;4.27;;;3.80;;
4508;SDS011;2267;48.816;9.230;2023-04-03T01:12:34;3.73;;;3.43;;
4508;SDS011;2267;48.816;9.230;2023-04-03T01:15:05;3.80;;;3.40;;
4508;SDS011;2267;48.816;9.230;2023-04-03T01:17:42;3.87;;;3.17;;
4508;SDS011;2267;48.816;9.230;2023-04-03T01:28:06;4.27;;;3.87;;
4508;SDS011;2267;48.816;9.230;2023-04-03T01:30:38;5.23;;;3.87;;
4508;SDS011;2267;48.816;9.230;2023-04-03T01:33:11;4.07;;;3.77;;
4508;SDS011;2267;48.816;9.230;2023-04-03T01:35:38;3.90;;;3.60;;
4508;SDS011;2267;48.816;9.230;2023-04-03T01:38:05;4.23;;;3.93;;
4508;SDS011;2267;48.816;9.230;2023-04-03T01:40:32;3.97;;;3.17;;
4508;SDS011;2267;48.816;9.230;2023-04-03T01:42:59;3.57;;;3.23;;
4508;SDS011;2267;48.816;9.230;2023-04-03T01:45:26;6.60;;;4.13;;
4508;SDS011;2267;48.816;9.230;2023-04-03T01:47:53;3.90;;;3.50;;
4508;SDS011;2267;48.816;9.230;2023-04-03T01:50:20;3.50;;;3.20;;
4508;SDS011;2267;48.816;9.230;2023-04-03T01:52:47;4.10;;;3.40;;
4508;SDS011;2267;48.816;9.230;2023-04-03T01:55:14;3.70;;;3.40;;
4508;SDS011;2267;48.816;9.230;2023-04-03T01:57:41;3.70;;;3.40;;
4508;SDS011;2267;48.816;9.230;2023-04-03T02:00:08;3.80;;;3.40;;
4508;SDS011;2267;48.816;9.230;2023-04-03T02:02:35;3.57;;;3.27;;
4508;SDS011;2267;48.816;9.230;2023-04-03T02:05:02;4.10;;;3.80;;
4508;SDS011;2267;48.816;9.230;2023-04-03T02:07:29;4.10;;;3.47;;
4508;SDS011;2267;48.816;9.230;2023-04-03T02:09:56;3.67;;;3.37;;
4508;SDS011;2267;48.816;9.230;2023-04-03T02:12:22;4.90;;;4.50;;
4508;SDS011;2267;48.816;9.230;2023-04-03T02:14:49;4.37;;;4.00;;
4508;SDS011;2267;48.816;9.230;2023-04-03T02:17:16;3.83;;;3.40;;
4508;SDS011;2267;48.816;9.230;2023-04-03T02:19:43;3.40;;;3.10;;
4508;SDS011;2267;48.816;9.230;2023-04-03T02:22:10;3.73;;;3.43;;
4508;SDS011;2267;48.816;9.230;2023-04-03T02:24:37;4.30;;;3.90;;
4508;SDS011;2267;48.816;9.230;2023-04-03T02:27:05;3.87;;;3.57;;
4508;SDS011;2267;48.816;9.230;2023-04-03T02:29:32;3.80;;;3.50;;
4508;SDS011;2267;48.816;9.230;2023-04-03T02:31:58;3.93;;;3.63;;
4508;SDS011;2267;48.816;9.230;2023-04-03T02:34:25;3.90;;;3.50;;
4508;SDS011;2267;48.816;9.230;2023-04-03T02:36:52;3.97;;;3.57;;
4508;SDS011;2267;48.816;9.230;2023-04-03T02:39:19;4.03;;;3.73;;
4508;SDS011;2267;48.816;9.230;2023-04-03T02:41:45;3.80;;;3.50;;
4508;SDS011;2267;48.816;9.230;2023-04-03T02:44:13;4.43;;;3.70;;
4508;SDS011;2267;48.816;9.230;2023-04-03T02:46:40;3.70;;;3.40;;
4508;SDS011;2267;48.816;9.230;2023-04-03T02:49:07;4.50;;;4.10;;
4508;SDS011;2267;48.816;9.230;2023-04-03T02:51:34;4.10;;;3.80;;
4508;SDS011;2267;48.816;9.230;2023-04-03T02:54:01;4.57;;;4.20;;
4508;SDS011;2267;48.816;9.230;2023-04-03T02:56:27;4.13;;;3.70;;
4508;SDS011;2267;48.816;9.230;2023-04-03T02:58:54;4.10;;;3.70;;
4508;SDS011;2267;48.816;9.230;2023-04-03T03:01:21;4.17;;;3.87;;
4508;SDS011;2267;48.816;9.230;2023-04-03T03:03:48;4.10;;;3.80;;
4508;SDS011;2267;48.816;9.230;2023-04-03T03:06:15;4.60;;;3.57;;
4508;SDS011;2267;48.816;9.230;2023-04-03T03:08:43;3.87;;;3.53;;
4508;SDS011;2267;48.816;9.230;2023-04-03T03:11:10;3.43;;;3.13;;
4508;SDS011;2267;48.816;9.230;2023-04-03T03:13:37;4.10;;;3.30;;
4508;SDS011;2267;48.816;9.230;2023-04-03T03:16:04;4.43;;;3.73;;
4508;SDS011;2267;48.816;9.230;2023-04-03T03:18:31;4.37;;;3.97;;
4508;SDS011;2267;48.816;9.230;2023-04-03T03:20:58;3.90;;;3.50;;
4508;SDS011;2267;48.816;9.230;2023-04-03T03:23:27;4.57;;;4.13;;
4508;SDS011;2267;48.816;9.230;2023-04-03T03:25:58;4.43;;;4.00;;
4508;SDS011;2267;48.816;9.230;2023-04-03T03:28:27;3.67;;;3.33;;
4508;SDS011;2267;48.816;9.230;2023-04-03T03:30:54;3.37;;;3.10;;
4508;SDS011;2267;48.816;9.230;2023-04-03T03:33:21;4.80;;;3.93;;
4508;SDS011;2267;48.816;9.230;2023-04-03T03:35:48;4.20;;;3.70;;
4508;SDS011;2267;48.816;9.230;2023-04-03T03:38:14;3.70;;;3.40;;
4508;SDS011;2267;48.816;9.230;2023-04-03T03:40:41;4.00;;;3.70;;
4508;SDS011;2267;48.816;9.230;2023-04-03T03:43:08;4.73;;;4.33;;
4508;SDS011;2267;48.816;9.230;2023-04-03T03:45:36;5.10;;;4.43;;
4508;SDS011;2267;48.816;9.230;2023-04-03T03:48:03;4.17;;;3.43;;
4508;SDS011;2267;48.816;9.230;2023-04-03T03:50:30;3.60;;;3.30;;
4508;SDS011;2267;48.816;9.230;2023-04-03T03:52:57;4.23;;;3.83;;
4508;SDS011;2267;48.816;9.230;2023-04-03T03:55:24;3.10;;;2.90;;
4508;SDS011;2267;48.816;9.230;2023-04-03T03:57:51;3.70;;;3.40;;
4508;SDS011;2267;48.816;9.230;2023-04-03T04:00:18;4.67;;;3.70;;
4508;SDS011;2267;48.816;9.230;2023-04-03T04:02:45;4.50;;;3.40;;
4508;SDS011;2267;48.816;9.230;2023-04-03T04:05:13;4.37;;;3.97;;
4508;SDS011;2267;48.816;9.230;2023-04-03T04:07:39;4.13;;;3.73;;
4508;SDS011;2267;48.816;9.230;2023-04-03T04:10:06;4.40;;;4.00;;
4508;SDS011;2267;48.816;9.230;2023-04-03T04:12:33;4.00;;;3.70;;
4508;SDS011;2267;48.816;9.230;2023-04-03T04:15:02;3.93;;;3.20;;
4508;SDS011;2267;48.816;9.230;2023-04-03T04:17:29;3.90;;;3.40;;
4508;SDS011;2267;48.816;9.230;2023-04-03T04:19:56;3.80;;;3.50;;
4508;SDS011;2267;48.816;9.230;2023-04-03T04:22:23;3.93;;;3.63;;
4508;SDS011;2267;48.816;9.230;2023-04-03T04:24:49;3.60;;;3.30;;
4508;SDS011;2267;48.816;9.230;2023-04-03T04:27:16;3.40;;;3.10;;
4508;SDS011;2267;48.816;9.230;2023-04-03T04:29:43;3.87;;;3.57;;
4508;SDS011;2267;48.816;9.230;2023-04-03T04:32:10;3.40;;;3.10;;
4508;SDS011;2267;48.816;9.230;2023-04-03T04:34:37;3.63;;;3.33;;
4508;SDS011;2267;48.816;9.230;2023-04-03T04:37:03;3.67;;;3.37;;
4508;SDS011;2267;48.816;9.230;2023-04-03T04:39:30;4.80;;;3.70;;
4508;SDS011;2267;48.816;9.230;2023-04-03T04:41:57;4.50;;;3.70;;
4508;SDS011;2267;48.816;9.230;2023-04-03T04:44:24;4.10;;;3.70;;
4508;SDS011;2267;48.816;9.230;2023-04-03T04:46:51;3.97;;;3.67;;
4508;SDS011;2267;48.816;9.230;2023-04-03T04:49:18;3.60;;;3.30;;
4508;SDS011;2267;48.816;9.230;2023-04-03T04:51:44;4.23;;;3.60;;
4508;SDS011;2267;48.816;9.230;2023-04-03T04:54:17;3.93;;;3.63;;
4508;SDS011;2267;48.816;9.230;2023-04-03T04:56:44;3.83;;;3.43;;
4508;SDS011;2267;48.816;9.230;2023-04-03T04:59:11;6.00;;;4.43;;
4508;SDS011;2267;48.816;9.230;2023-04-03T05:01:38;3.80;;;3.40;;
4508;SDS011;2267;48.816;9.230;2023-04-03T05:04:05;4.23;;;3.40;;
4508;SDS011;2267;48.816;9.230;2023-04-03T05:06:31;3.50;;;3.20;;
4508;SDS011;2267;48.816;9.230;2023-04-03T05:08:59;3.63;;;3.33;;
4508;SDS011;2267;48.816;9.230;2023-04-03T05:11:26;3.20;;;3.00;;
4508;SDS011;2267;48.816;9.230;2023-04-03T05:13:52;3.40;;;3.10;;
4508;SDS011;2267;48.816;9.230;2023-04-03T05:16:19;3.80;;;3.50;;
4508;SDS011;2267;48.816;9.230;2023-04-03T05:18:46;3.70;;;3.40;;
4508;SDS011;2267;48.816;9.230;2023-04-03T05:21:13;5.03;;;3.63;;
4508;SDS011;2267;48.816;9.230;2023-04-03T05:23:40;4.17;;;3.67;;
4508;SDS011;2267;48.816;9.230;2023-04-03T05:26:07;3.93;;;3.20;;
4508;SDS011;2267;48.816;9.230;2023-04-03T05:28:34;6.43;;;3.00;;
4508;SDS011;2267;48.816;9.230;2023-04-03T05:31:01;3.73;;;3.43;;
4508;SDS011;2267;48.816;9.230;2023-04-03T05:33:28;3.60;;;3.17;;
4508;SDS011;2267;48.816;9.230;2023-04-03T05:35:55;3.77;;;3.37;;
4508;SDS011;2267;48.816;9.230;2023-04-03T05:38:22;4.00;;;2.90;;
4508;SDS011;2267;48.816;9.230;2023-04-03T05:40:49;2.63;;;2.30;;
4508;SDS011;2267;48.816;9.230;2023-04-03T05:43:16;3.33;;;3.03;;
4508;SDS011;2267;48.816;9.230;2023-04-03T05:45:43;2.80;;;2.60;;
4508;SDS011;2267;48.816;9.230;2023-04-03T05:48:12;5.30;;;3.70;;
4508;SDS011;2267;48.816;9.230;2023-04-03T05:50:39;3.67;;;3.37;;
4508;SDS011;2267;48.816;9.230;2023-04-03T05:53:10;3.80;;;3.40;;
4508;SDS011;2267;48.816;9.230;2023-04-03T05:55:46;3.90;;;3.20;;
4508;SDS011;2267;48.816;9.230;2023-04-03T05:58:13;4.03;;;3.63;;
4508;SDS011;2267;48.816;9.230;2023-04-03T06:00:40;3.30;;;3.10;;
4508;SDS011;2267;48.816;9.230;2023-04-03T06:03:06;2.97;;;2.77;;
4508;SDS011;2267;48.816;9.230;2023-04-03T06:05:34;4.10;;;3.80;;
4508;SDS011;2267;48.816;9.230;2023-04-03T06:08:01;2.90;;;2.70;;
4508;SDS011;2267;48.816;9.230;2023-04-03T06:10:29;3.40;;;3.10;;
4508;SDS011;2267;48.816;9.230;2023-04-03T06:12:56;5.40;;;3.70;;
4508;SDS011;2267;48.816;9.230;2023-04-03T06:15:23;6.60;;;3.20;;
4508;SDS011;2267;48.816;9.230;2023-04-03T06:17:50;4.63;;;3.27;;
4508;SDS011;2267;48.816;9.230;2023-04-03T06:20:17;3.67;;;3.27;;
4508;SDS011;2267;48.816;9.230;2023-04-03T06:22:44;5.17;;;3.27;;
4508;SDS011;2267;48.816;9.230;2023-04-03T06:25:11;4.13;;;3.50;;
4508;SDS011;2267;48.816;9.230;2023-04-03T06:27:38;3.67;;;3.37;;
4508;SDS011;2267;48.816;9.230;2023-04-03T06:30:05;3.80;;;3.40;;
4508;SDS011;2267;48.816;9.230;2023-04-03T06:32:33;3.20;;;2.97;;
4508;SDS011;2267;48.816;9.230;2023-04-03T06:35:00;3.23;;;2.90;;
4508;SDS011;2267;48.816;9.230;2023-04-03T06:37:27;3.20;;;2.90;;
4508;SDS011;2267;48.816;9.230;2023-04-03T06:39:57;3.53;;;3.20;;
4508;SDS011;2267;48.816;9.230;2023-04-03T06:42:24;5.67;;;2.97;;
4508;SDS011;2267;48.816;9.230;2023-04-03T06:44:51;3.30;;;2.80;;
4508;SDS011;2267;48.816;9.230;2023-04-03T06:47:18;4.10;;;3.70;;
4508;SDS011;2267;48.816;9.230;2023-04-03T06:49:45;4.30;;;3.10;;
4508;SDS011;2267;48.816;9.230;2023-04-03T06:52:12;4.70;;;3.53;;
4508;SDS011;2267;48.816;9.230;2023-04-03T06:54:39;4.20;;;3.70;;
4508;SDS011;2267;48.816;9.230;2023-04-03T06:57:07;3.30;;;3.00;;
4508;SDS011;2267;48.816;9.230;2023-04-03T06:59:34;7.63;;;3.97;;
4508;SDS011;2267;48.816;9.230;2023-04-03T07:02:01;3.80;;;3.40;;
4508;SDS011;2267;48.816;9.230;2023-04-03T07:04:28;4.33;;;3.20;;
4508;SDS011;2267;48.816;9.230;2023-04-03T07:06:55;3.87;;;3.50;;
4508;SDS011;2267;48.816;9.230;2023-04-03T07:09:22;6.13;;;3.20;;
4508;SDS011;2267;48.816;9.230;2023-04-03T07:11:49;4.40;;;3.60;;
4508;SDS011;2267;48.816;9.230;2023-04-03T07:14:16;4.20;;;3.20;;
4508;SDS011;2267;48.816;9.230;2023-04-03T07:16:43;3.43;;;3.13;;
4508;SDS011;2267;48.816;9.230;2023-04-03T07:19:09;6.43;;;3.27;;
4508;SDS011;2267;48.816;9.230;2023-04-03T07:21:36;4.20;;;3.80;;
4508;SDS011;2267;48.816;9.230;2023-04-03T07:24:03;4.40;;;3.73;;
4508;SDS011;2267;48.816;9.230;2023-04-03T07:26:30;4.57;;;3.70;;
4508;SDS011;2267;48.816;9.230;2023-04-03T07:28:57;4.93;;;3.60;;
4508;SDS011;2267;48.816;9.230;2023-04-03T07:31:25;3.70;;;3.40;;
4508;SDS011;2267;48.816;9.230;2023-04-03T07:33:52;3.70;;;3.17;;
4508;SDS011;2267;48.816;9.230;2023-04-03T07:36:20;4.30;;;3.23;;
4508;SDS011;2267;48.816;9.230;2023-04-03T07:38:48;4.07;;;3.67;;
4508;SDS011;2267;48.816;9.230;2023-04-03T07:41:16;4.83;;;4.07;;
4508;SDS011;2267;48.816;9.230;2023-04-03T07:43:44;4.43;;;3.57;;
4508;SDS011;2267;48.816;9.230;2023-04-03T07:46:13;3.60;;;3.30;;
4508;SDS011;2267;48.816;9.230;2023-04-03T07:48:39;3.70;;;3.40;;
4508;SDS011;2267;48.816;9.230;2023-04-03T07:51:06;4.50;;;3.50;;
4508;SDS011;2267;48.816;9.230;2023-04-03T07:53:33;5.60;;;3.70;;
4508;SDS011;2267;48.816;9.230;2023-04-03T07:56:00;4.50;;;3.40;;
4508;SDS011;2267;48.816;9.230;2023-04-03T07:58:29;4.17;;;3.80;;
4508;SDS011;2267;48.816;9.230;2023-04-03T08:00:56;3.97;;;3.57;;
4508;SDS011;2267;48.816;9.230;2023-04-03T08:03:23;4.73;;;3.87;;
4508;SDS011;2267;48.816;9.230;2023-04-03T08:05:50;3.80;;;3.47;;
4508;SDS011;2267;48.816;9.230;2023-04-03T08:08:19;5.83;;;3.90;;
4508;SDS011;2267;48.816;9.230;2023-04-03T08:10:53;4.23;;;3.43;;
4508;SDS011;2267;48.816;9.230;2023-04-03T08:13:21;4.20;;;3.40;;
4508;SDS011;2267;48.816;9.230;2023-04-03T08:15:48;4.20;;;3.80;;
4508;SDS011;2267;48.816;9.230;2023-04-03T08:18:15;3.83;;;3.30;;
4508;SDS011;2267;48.816;9.230;2023-04-03T08:20:42;4.30;;;3.60;;
4508;SDS011;2267;48.816;9.230;2023-04-03T08:23:10;5.23;;;4.27;;
4508;SDS011;2267;48.816;9.230;2023-04-03T08:25:37;5.50;;;3.93;;
4508;SDS011;2267;48.816;9.230;2023-04-03T08:28:05;5.73;;;3.30;;
4508;SDS011;2267;48.816;9.230;2023-04-03T08:30:32;3.20;;;2.90;;
4508;SDS011;2267;48.816;9.230;2023-04-03T08:33:01;4.23;;;3.50;;
4508;SDS011;2267;48.816;9.230;2023-04-03T08:35:28;4.90;;;3.33;;
4508;SDS011;2267;48.816;9.230;2023-04-03T08:37:55;3.80;;;3.20;;
4508;SDS011;2267;48.816;9.230;2023-04-03T08:40:23;5.23;;;3.40;;
4508;SDS011;2267;48.816;9.230;2023-04-03T08:46:10;4.30;;;3.90;;
4508;SDS011;2267;48.816;9.230;2023-04-03T08:48:33;5.10;;;3.40;;
4508;SDS011;2267;48.816;9.230;2023-04-03T08:51:09;4.43;;;3.40;;
4508;SDS011;2267;48.816;9.230;2023-04-03T08:53:46;4.17;;;3.77;;
4508;SDS011;2267;48.816;9.230;2023-04-03T08:56:20;3.73;;;3.00;;
4508;SDS011;2267;48.816;9.230;2023-04-03T08:58:51;3.90;;;3.50;;
4508;SDS011;2267;48.816;9.230;2023-04-03T09:01:30;3.93;;;2.50;;
4508;SDS011;2267;48.816;9.230;2023-04-03T09:04:03;3.53;;;3.10;;
4508;SDS011;2267;48.816;9.230;2023-04-03T09:06:36;3.23;;;2.90;;
4508;SDS011;2267;48.816;9.230;2023-04-03T09:09:13;3.40;;;2.83;;
4508;SDS011;2267;48.816;9.230;2023-04-03T09:12:00;4.90;;;3.20;;
4508;SDS011;2267;48.816;9.230;2023-04-03T09:21:22;5.00;;;3.37;;
4508;SDS011;2267;48.816;9.230;2023-04-03T09:23:58;5.10;;;3.30;;
4508;SDS011;2267;48.816;9.230;2023-04-03T09:26:31;4.87;;;3.57;;
4508;SDS011;2267;48.816;9.230;2023-04-03T09:29:05;4.20;;;3.87;;
4508;SDS011;2267;48.816;9.230;2023-04-03T09:31:37;3.80;;;3.10;;
4508;SDS011;2267;48.816;9.230;2023-04-03T09:34:10;4.30;;;2.73;;
4508;SDS011;2267;48.816;9.230;2023-04-03T09:36:44;3.90;;;2.90;;
4508;SDS011;2267;48.816;9.230;2023-04-03T09:39:15;4.60;;;3.20;;
4508;SDS011;2267;48.816;9.230;2023-04-03T09:44:32;4.40;;;3.63;;
4508;SDS011;2267;48.816;9.230;2023-04-03T09:47:16;3.53;;;3.10;;
4508;SDS011;2267;48.816;9.230;2023-04-03T09:49:43;3.47;;;2.57;;
4508;SDS011;2267;48.816;9.230;2023-04-03T09:52:24;5.53;;;3.13;;
4508;SDS011;2267;48.816;9.230;2023-04-03T09:54:52;4.43;;;3.50;;
4508;SDS011;2267;48.816;9.230;2023-04-03T09:57:19;2.83;;;2.63;;
4508;SDS011;2267;48.816;9.230;2023-04-03T09:59:47;3.10;;;2.40;;
4508;SDS011;2267;48.816;9.230;2023-04-03T10:02:39;2.80;;;2.60;;
4508;SDS011;2267;48.816;9.230;2023-04-03T10:05:28;3.37;;;2.73;;
4508;SDS011;2267;48.816;9.230;2023-04-03T10:10:42;4.60;;;3.20;;
4508;SDS011;2267;48.816;9.230;2023-04-03T10:13:14;3.73;;;3.07;;
4508;SDS011;2267;48.816;9.230;2023-04-03T10:18:32;4.63;;;2.97;;
4508;SDS011;2267;48.816;9.230;2023-04-03T10:24:10;6.50;;;3.17;;
4508;SDS011;2267;48.816;9.230;2023-04-03T10:29:30;2.90;;;2.70;;
4508;SDS011;2267;48.816;9.230;2023-04-03T10:33:23;4.27;;;3.20;;
4508;SDS011;2267;48.816;9.230;2023-04-03T10:38:23;2.60;;;2.40;;
4508;SDS011;2267;48.816;9.230;2023-04-03T10:41:29;3.30;;;2.87;;
4508;SDS011;2267;48.816;9.230;2023-04-03T10:44:36;3.07;;;2.77;;
4508;SDS011;2267;48.816;9.230;2023-04-03T10:49:55;4.60;;;2.90;;
4508;SDS011;2267;48.816;9.230;2023-04-03T10:52:40;3.97;;;2.33;;
4508;SDS011;2267;48.816;9.230;2023-04-03T10:55:36;2.67;;;2.30;;
4508;SDS011;2267;48.816;9.230;2023-04-03T10:58:13;3.70;;;2.70;;
4508;SDS011;2267;48.816;9.230;2023-04-03T11:01:01;3.97;;;2.60;;
4508;SDS011;2267;48.816;9.230;2023-04-03T11:03:44;3.50;;;2.70;;
4508;SDS011;2267;48.816;9.230;2023-04-03T11:06:16;3.10;;;2.40;;
4508;SDS011;2267;48.816;9.230;2023-04-03T11:08:49;2.70;;;2.00;;
4508;SDS011;2267;48.816;9.230;2023-04-03T11:11:30;2.87;;;2.13;;
4508;SDS011;2267;48.816;9.230;2023-04-03T11:16:37;3.43;;;2.13;;
4508;SDS011;2267;48.816;9.230;2023-04-03T11:19:20;2.90;;;2.60;;
4508;SDS011;2267;48.816;9.230;2023-04-03T11:21:56;9.50;;;2.40;;
4508;SDS011;2267;48.816;9.230;2023-04-03T11:24:31;3.13;;;2.63;;
4508;SDS011;2267;48.816;9.230;2023-04-03T11:27:00;2.50;;;2.20;;
4508;SDS011;2267;48.816;9.230;2023-04-03T11:29:34;3.27;;;2.80;;
4508;SDS011;2267;48.816;9.230;2023-04-03T11:32:11;3.17;;;2.57;;
4508;SDS011;2267;48.816;9.230;2023-04-03T11:34:47;4.30;;;2.73;;
4508;SDS011;2267;48.816;9.230;2023-04-03T11:37:31;3.90;;;2.80;;
4508;SDS011;2267;48.816;9.230;2023-04-03T11:40:06;3.23;;;2.90;;
4508;SDS011;2267;48.816;9.230;2023-04-03T11:42:48;5.37;;;2.90;;
4508;SDS011;2267;48.816;9.230;2023-04-03T11:47:51;2.97;;;2.20;;
4508;SDS011;2267;48.816;9.230;2023-04-03T11:50:49;2.90;;;2.57;;
4508;SDS011;2267;48.816;9.230;2023-04-03T11:58:17;3.40;;;2.53;;
4508;SDS011;2267;48.816;9.230;2023-04-03T12:00:54;3.30;;;2.77;;
4508;SDS011;2267;48.816;9.230;2023-04-03T12:13:35;6.10;;;2.90;;
4508;SDS011;2267;48.816;9.230;2023-04-03T12:16:07;4.10;;;2.87;;
4508;SDS011;2267;48.816;9.230;2023-04-03T12:26:44;4.63;;;3.07;;
4508;SDS011;2267;48.816;9.230;2023-04-03T12:43:55;3.80;;;2.77;;
4508;SDS011;2267;48.816;9.230;2023-04-03T12:46:37;2.50;;;2.30;;
4508;SDS011;2267;48.816;9.230;2023-04-03T12:49:14;3.90;;;2.83;;
4508;SDS011;2267;48.816;9.230;2023-04-03T12:51:47;2.60;;;2.40;;
4508;SDS011;2267;48.816;9.230;2023-04-03T12:57:16;4.63;;;3.13;;
4508;SDS011;2267;48.816;9.230;2023-04-03T12:59:46;2.30;;;2.03;;
4508;SDS011;2267;48.816;9.230;2023-04-03T13:02:21;4.67;;;2.63;;
4508;SDS011;2267;48.816;9.230;2023-04-03T13:04:53;3.50;;;2.40;;
4508;SDS011;2267;48.816;9.230;2023-04-03T13:09:55;1.87;;;1.67;;
4508;SDS011;2267;48.816;9.230;2023-04-03T13:12:24;3.60;;;3.07;;
4508;SDS011;2267;48.816;9.230;2023-04-03T13:14:52;3.80;;;2.70;;
4508;SDS011;2267;48.816;9.230;2023-04-03T13:17:24;4.47;;;2.30;;
4508;SDS011;2267;48.816;9.230;2023-04-03T13:19:51;3.80;;;2.80;;
4508;SDS011;2267;48.816;9.230;2023-04-03T13:25:06;3.67;;;2.90;;
4508;SDS011;2267;48.816;9.230;2023-04-03T13:27:35;2.70;;;2.50;;
4508;SDS011;2267;48.816;9.230;2023-04-03T13:30:05;3.70;;;2.70;;
4508;SDS011;2267;48.816;9.230;2023-04-03T13:32:33;2.77;;;2.30;;
4508;SDS011;2267;48.816;9.230;2023-04-03T13:35:00;2.97;;;2.27;;
4508;SDS011;2267;48.816;9.230;2023-04-03T13:37:52;3.10;;;2.20;;
4508;SDS011;2267;48.816;9.230;2023-04-03T13:40:21;3.60;;;2.70;;
4508;SDS011;2267;48.816;9.230;2023-04-03T13:42:58;4.27;;;2.90;;
4508;SDS011;2267;48.816;9.230;2023-04-03T13:45:28;3.43;;;2.73;;
4508;SDS011;2267;48.816;9.230;2023-04-03T13:50:59;3.20;;;2.63;;
4508;SDS011;2267;48.816;9.230;2023-04-03T13:53:30;4.73;;;2.73;;
4508;SDS011;2267;48.816;9.230;2023-04-03T13:56:06;5.57;;;2.93;;
4508;SDS011;2267;48.816;9.230;2023-04-03T13:58:51;3.60;;;2.83;;
4508;SDS011;2267;48.816;9.230;2023-04-03T14:01:43;3.53;;;2.50;;
4508;SDS011;2267;48.816;9.230;2023-04-03T14:04:20;2.77;;;2.37;;
4508;SDS011;2267;48.816;9.230;2023-04-03T14:06:50;4.07;;;3.00;;
4508;SDS011;2267;48.816;9.230;2023-04-03T14:09:19;5.10;;;2.93;;
4508;SDS011;2267;48.816;9.230;2023-04-03T14:11:47;2.70;;;2.27;;
4508;SDS011;2267;48.816;9.230;2023-04-03T14:14:21;3.50;;;3.20;;
4508;SDS011;2267;48.816;9.230;2023-04-03T14:16:51;3.30;;;2.70;;
4508;SDS011;2267;48.816;9.230;2023-04-03T14:21:57;2.73;;;2.43;;
4508;SDS011;2267;48.816;9.230;2023-04-03T14:24:25;4.20;;;2.77;;
4508;SDS011;2267;48.816;9.230;2023-04-03T14:26:53;4.83;;;3.07;;
4508;SDS011;2267;48.816;9.230;2023-04-03T14:29:21;3.27;;;2.93;;
4508;SDS011;2267;48.816;9.230;2023-04-03T14:31:49;4.23;;;3.60;;
4508;SDS011;2267;48.816;9.230;2023-04-03T14:34:29;2.83;;;2.60;;
4508;SDS011;2267;48.816;9.230;2023-04-03T14:36:56;3.23;;;2.93;;
4508;SDS011;2267;48.816;9.230;2023-04-03T14:39:23;3.70;;;2.80;;
4508;SDS011;2267;48.816;9.230;2023-04-03T14:41:49;3.43;;;2.80;;
4508;SDS011;2267;48.816;9.230;2023-04-03T14:44:16;5.53;;;3.10;;
4508;SDS011;2267;48.816;9.230;2023-04-03T14:46:43;2.60;;;2.40;;
4508;SDS011;2267;48.816;9.230;2023-04-03T14:49:24;2.73;;;2.53;;
4508;SDS011;2267;48.816;9.230;2023-04-03T14:51:55;2.80;;;2.60;;
4508;SDS011;2267;48.816;9.230;2023-04-03T14:54:25;3.30;;;2.90;;
4508;SDS011;2267;48.816;9.230;2023-04-03T14:56:54;3.50;;;2.70;;
4508;SDS011;2267;48.816;9.230;2023-04-03T14:59:23;3.33;;;2.57;;
4508;SDS011;2267;48.816;9.230;2023-04-03T15:01:50;3.40;;;3.10;;
4508;SDS011;2267;48.816;9.230;2023-04-03T15:04:18;4.13;;;2.43;;
4508;SDS011;2267;48.816;9.230;2023-04-03T15:06:47;3.10;;;2.60;;
4508;SDS011;2267;48.816;9.230;2023-04-03T15:11:47;7.10;;;2.67;;
4508;SDS011;2267;48.816;9.230;2023-04-03T15:14:14;2.97;;;2.40;;
4508;SDS011;2267;48.816;9.230;2023-04-03T15:17:00;3.00;;;2.23;;
4508;SDS011;2267;48.816;9.230;2023-04-03T15:19:30;2.90;;;2.70;;
4508;SDS011;2267;48.816;9.230;2023-04-03T15:22:02;4.80;;;2.80;;
4508;SDS011;2267;48.816;9.230;2023-04-03T15:24:29;3.37;;;2.90;;
4508;SDS011;2267;48.816;9.230;2023-04-03T15:26:56;3.00;;;2.70;;
4508;SDS011;2267;48.816;9.230;2023-04-03T15:29:23;3.00;;;2.60;;
4508;SDS011;2267;48.816;9.230;2023-04-03T15:31:50;2.83;;;2.60;;
4508;SDS011;2267;48.816;9.230;2023-04-03T15:34:19;3.40;;;3.10;;
4508;SDS011;2267;48.816;9.230;2023-04-03T15:36:48;3.17;;;2.27;;
4508;SDS011;2267;48.816;9.230;2023-04-03T15:39:16;3.27;;;2.47;;
4508;SDS011;2267;48.816;9.230;2023-04-03T15:41:43;3.40;;;3.03;;
4508;SDS011;2267;48.816;9.230;2023-04-03T15:44:11;2.67;;;2.43;;
4508;SDS011;2267;48.816;9.230;2023-04-03T15:46:39;2.60;;;2.40;;
4508;SDS011;2267;48.816;9.230;2023-04-03T15:49:06;3.20;;;2.90;;
4508;SDS011;2267;48.816;9.230;2023-04-03T15:51:33;3.47;;;3.17;;
4508;SDS011;2267;48.816;9.230;2023-04-03T15:53:59;3.53;;;2.30;;
4508;SDS011;2267;48.816;9.230;2023-04-03T15:56:26;3.00;;;2.40;;
4508;SDS011;2267;48.816;9.230;2023-04-03T15:58:53;2.97;;;2.70;;
4508;SDS011;2267;48.816;9.230;2023-04-03T16:01:20;3.00;;;2.40;;
4508;SDS011;2267;48.816;9.230;2023-04-03T16:03:47;3.03;;;2.50;;
4508;SDS011;2267;48.816;9.230;2023-04-03T16:06:14;4.10;;;2.87;;
4508;SDS011;2267;48.816;9.230;2023-04-03T16:08:42;3.10;;;2.27;;
4508;SDS011;2267;48.816;9.230;2023-04-03T16:11:09;2.50;;;2.30;;
4508;SDS011;2267;48.816;9.230;2023-04-03T16:13:36;2.67;;;2.40;;
4508;SDS011;2267;48.816;9.230;2023-04-03T16:16:03;3.10;;;2.80;;
4508;SDS011;2267;48.816;9.230;2023-04-03T16:18:31;3.73;;;2.70;;
4508;SDS011;2267;48.816;9.230;2023-04-03T16:21:01;3.40;;;2.60;;
4508;SDS011;2267;48.816;9.230;2023-04-03T16:23:28;2.90;;;2.43;;
4508;SDS011;2267;48.816;9.230;2023-04-03T16:25:55;3.20;;;2.63;;
4508;SDS011;2267;48.816;9.230;2023-04-03T16:28:22;3.90;;;2.60;;
4508;SDS011;2267;48.816;9.230;2023-04-03T16:30:49;3.97;;;2.60;;
4508;SDS011;2267;48.816;9.230;2023-04-03T16:33:16;3.43;;;2.50;;
4508;SDS011;2267;48.816;9.230;2023-04-03T16:35:42;3.00;;;2.60;;
4508;SDS011;2267;48.816;9.230;2023-04-03T16:38:10;3.20;;;2.90;;
4508;SDS011;2267;48.816;9.230;2023-04-03T16:40:37;4.83;;;2.90;;
4508;SDS011;2267;48.816;9.230;2023-04-03T16:43:03;8.23;;;2.80;;
4508;SDS011;2267;48.816;9.230;2023-04-03T16:45:30;3.93;;;2.60;;
4508;SDS011;2267;48.816;9.230;2023-04-03T16:47:57;3.20;;;2.43;;
4508;SDS011;2267;48.816;9.230;2023-04-03T16:50:29;4.10;;;2.67;;
4508;SDS011;2267;48.816;9.230;2023-04-03T16:52:56;3.47;;;2.63;;
4508;SDS011;2267;48.816;9.230;2023-04-03T16:55:23;5.23;;;3.37;;
4508;SDS011;2267;48.816;9.230;2023-04-03T16:57:50;3.60;;;2.93;;
4508;SDS011;2267;48.816;9.230;2023-04-03T17:00:17;3.40;;;2.30;;
4508;SDS011;2267;48.816;9.230;2023-04-03T17:02:44;2.50;;;2.30;;
4508;SDS011;2267;48.816;9.230;2023-04-03T17:05:11;4.03;;;2.60;;
4508;SDS011;2267;48.816;9.230;2023-04-03T17:07:38;3.60;;;3.13;;
4508;SDS011;2267;48.816;9.230;2023-04-03T17:10:05;3.10;;;2.80;;